Bethcar, South Carolina
Current Conditions -  °F | °C
As of 9:55 PM on Sunday 23 Nov 2014 (Local Time) from KAIK Reporting Station
Scattered Clouds Scattered Clouds  
Wind Chill: 64°   Ceiling: Unl
Heat Index: 64°   Visibility: 10mi
Dew Point: 64°   Wind: 7mph
Humidity: 100%   Direction: 200°SSW
Pressure: 29.82"   Gusts: NA
Location:  33.6528°N, 81.4253°W
Report Text: KAIK 240255Z AUTO 20006KT 10SM SCT065 SCT075 18/18 A2982 RMK AO2 LTG DSNT E AND SE PNO
Loading
Personal Weather Stations






























Interactive Weather Map New forecast layout! Learn more

10-Day Weather Forecast

Advertisements
Track Severe Weather on mobile